Terminal Aerodrome Forecast
Issued by NWS Sioux Falls, SD

Home | Current Version | Previous Version | Graphics & Text | Print | Product List | Glossary Off
Versions: 1 2 3 4 5 6 7 8 9 10 11 12 13 14 15 16 17 18 19 20

000
FTUS43 KFSD 061720
TAFHON
TAF
KHON 061720Z 0618/0718 35014G20KT 1 1/2SM FU BKN030
      TEMPO 0619/0621 3SM FU SCT030 BKN050
     FM062100 35014G20KT 3SM FU SCT040
     FM070200 01005KT 5SM FU SKC
     FM071500 05007KT 6SM FU FEW120=

USA.gov is the U.S. government's official web portal to all federal, state and local government web resources and services.